Weather at Sharjah International Airport

Public forecast

Using degrees Celsius for public forecast. Weather courtesy of forecast.io.

Current aviation weather report (METAR) for Sharjah International Airport

Report is more than 6 hours old.

2022/11/14 15:00 (retrieved 2 years ago)

OMSJ 141500Z 30005KT CAVOK 29/19 Q1014 NOSIG

Aviation forecast (TAF) for Sharjah International Airport

Forecast is more than 12 hours old.

2023/02/22 18:00 (retrieved 1 year ago)

TAF OMSJ 221700Z 2218/2400 18005KT CAVOK PROB30 2223/2305 4000 HZ BECMG 2306/2308 29010KT BECMG 2315/2317 16005KT